sensor_id;sensor_type;location;lat;lon;timestamp;P1;durP1;ratioP1;P2;durP2;ratioP2
59728;SDS011;45588;51.598;5.618;2024-02-26T00:02:22;9.40;;;5.57;;
59728;SDS011;45588;51.598;5.618;2024-02-26T00:04:47;10.30;;;6.53;;
59728;SDS011;45588;51.598;5.618;2024-02-26T00:07:13;10.25;;;5.30;;
59728;SDS011;45588;51.598;5.618;2024-02-26T00:09:38;9.88;;;5.15;;
59728;SDS011;45588;51.598;5.618;2024-02-26T00:12:03;9.40;;;5.47;;
59728;SDS011;45588;51.598;5.618;2024-02-26T00:14:29;8.70;;;5.32;;
59728;SDS011;45588;51.598;5.618;2024-02-26T00:16:54;7.43;;;5.68;;
59728;SDS011;45588;51.598;5.618;2024-02-26T00:19:19;7.75;;;4.70;;
59728;SDS011;45588;51.598;5.618;2024-02-26T00:21:45;10.98;;;6.78;;
59728;SDS011;45588;51.598;5.618;2024-02-26T00:24:10;9.90;;;6.20;;
59728;SDS011;45588;51.598;5.618;2024-02-26T00:26:35;9.83;;;5.67;;
59728;SDS011;45588;51.598;5.618;2024-02-26T00:29:00;10.67;;;6.07;;
59728;SDS011;45588;51.598;5.618;2024-02-26T00:31:25;8.57;;;6.40;;
59728;SDS011;45588;51.598;5.618;2024-02-26T00:33:50;9.73;;;7.27;;
59728;SDS011;45588;51.598;5.618;2024-02-26T00:36:15;11.35;;;6.60;;
59728;SDS011;45588;51.598;5.618;2024-02-26T00:38:41;11.38;;;6.43;;
59728;SDS011;45588;51.598;5.618;2024-02-26T00:41:07;14.73;;;6.50;;
59728;SDS011;45588;51.598;5.618;2024-02-26T00:43:33;10.82;;;6.38;;
59728;SDS011;45588;51.598;5.618;2024-02-26T00:45:58;12.88;;;6.95;;
59728;SDS011;45588;51.598;5.618;2024-02-26T00:48:23;7.50;;;5.13;;
59728;SDS011;45588;51.598;5.618;2024-02-26T00:50:50;10.27;;;4.93;;
59728;SDS011;45588;51.598;5.618;2024-02-26T00:53:15;8.05;;;5.00;;
59728;SDS011;45588;51.598;5.618;2024-02-26T00:55:41;10.55;;;5.35;;
59728;SDS011;45588;51.598;5.618;2024-02-26T00:58:06;9.57;;;5.40;;
59728;SDS011;45588;51.598;5.618;2024-02-26T01:00:31;11.15;;;5.75;;
59728;SDS011;45588;51.598;5.618;2024-02-26T01:02:56;9.27;;;6.15;;
59728;SDS011;45588;51.598;5.618;2024-02-26T01:05:21;13.13;;;7.40;;
59728;SDS011;45588;51.598;5.618;2024-02-26T01:07:46;11.63;;;6.93;;
59728;SDS011;45588;51.598;5.618;2024-02-26T01:10:12;10.77;;;6.70;;
59728;SDS011;45588;51.598;5.618;2024-02-26T01:12:37;11.27;;;7.45;;
59728;SDS011;45588;51.598;5.618;2024-02-26T01:15:02;12.27;;;7.07;;
59728;SDS011;45588;51.598;5.618;2024-02-26T01:17:30;9.93;;;8.13;;
59728;SDS011;45588;51.598;5.618;2024-02-26T01:19:56;10.90;;;7.00;;
59728;SDS011;45588;51.598;5.618;2024-02-26T01:22:21;12.85;;;7.82;;
59728;SDS011;45588;51.598;5.618;2024-02-26T01:24:46;9.70;;;6.65;;
59728;SDS011;45588;51.598;5.618;2024-02-26T01:27:11;11.55;;;7.88;;
59728;SDS011;45588;51.598;5.618;2024-02-26T01:29:37;8.75;;;6.45;;
59728;SDS011;45588;51.598;5.618;2024-02-26T01:32:02;12.38;;;7.13;;
59728;SDS011;45588;51.598;5.618;2024-02-26T01:34:29;8.75;;;6.95;;
59728;SDS011;45588;51.598;5.618;2024-02-26T01:36:55;11.75;;;7.43;;
59728;SDS011;45588;51.598;5.618;2024-02-26T01:39:21;11.70;;;7.07;;
59728;SDS011;45588;51.598;5.618;2024-02-26T01:41:47;9.65;;;6.68;;
59728;SDS011;45588;51.598;5.618;2024-02-26T01:44:12;10.70;;;6.95;;
59728;SDS011;45588;51.598;5.618;2024-02-26T01:46:38;9.55;;;6.57;;
59728;SDS011;45588;51.598;5.618;2024-02-26T01:49:03;10.27;;;6.88;;
59728;SDS011;45588;51.598;5.618;2024-02-26T01:51:29;8.85;;;6.95;;
59728;SDS011;45588;51.598;5.618;2024-02-26T01:53:54;13.38;;;6.03;;
59728;SDS011;45588;51.598;5.618;2024-02-26T01:56:20;13.38;;;6.75;;
59728;SDS011;45588;51.598;5.618;2024-02-26T01:58:46;11.30;;;6.95;;
59728;SDS011;45588;51.598;5.618;2024-02-26T02:01:12;11.13;;;7.55;;
59728;SDS011;45588;51.598;5.618;2024-02-26T02:03:37;16.77;;;8.05;;
59728;SDS011;45588;51.598;5.618;2024-02-26T02:06:03;10.02;;;7.05;;
59728;SDS011;45588;51.598;5.618;2024-02-26T02:08:29;9.70;;;7.97;;
59728;SDS011;45588;51.598;5.618;2024-02-26T02:10:54;10.63;;;7.07;;
59728;SDS011;45588;51.598;5.618;2024-02-26T02:13:20;10.18;;;7.32;;
59728;SDS011;45588;51.598;5.618;2024-02-26T02:15:45;9.95;;;7.18;;
59728;SDS011;45588;51.598;5.618;2024-02-26T02:18:10;13.57;;;7.80;;
59728;SDS011;45588;51.598;5.618;2024-02-26T02:20:35;12.75;;;7.47;;
59728;SDS011;45588;51.598;5.618;2024-02-26T02:23:01;16.08;;;7.25;;
59728;SDS011;45588;51.598;5.618;2024-02-26T02:25:26;14.38;;;8.98;;
59728;SDS011;45588;51.598;5.618;2024-02-26T02:27:52;12.20;;;7.47;;
59728;SDS011;45588;51.598;5.618;2024-02-26T02:30:18;10.00;;;7.63;;
59728;SDS011;45588;51.598;5.618;2024-02-26T02:32:43;10.10;;;7.90;;
59728;SDS011;45588;51.598;5.618;2024-02-26T02:35:08;13.05;;;8.38;;
59728;SDS011;45588;51.598;5.618;2024-02-26T02:37:34;12.48;;;8.70;;
59728;SDS011;45588;51.598;5.618;2024-02-26T02:39:59;13.15;;;8.85;;
59728;SDS011;45588;51.598;5.618;2024-02-26T02:42:25;12.55;;;8.18;;
59728;SDS011;45588;51.598;5.618;2024-02-26T02:44:50;13.63;;;8.93;;
59728;SDS011;45588;51.598;5.618;2024-02-26T02:47:15;12.55;;;8.93;;
59728;SDS011;45588;51.598;5.618;2024-02-26T02:49:40;13.90;;;9.00;;
59728;SDS011;45588;51.598;5.618;2024-02-26T02:52:05;13.63;;;7.10;;
59728;SDS011;45588;51.598;5.618;2024-02-26T02:54:31;13.35;;;7.35;;
59728;SDS011;45588;51.598;5.618;2024-02-26T02:56:56;13.50;;;8.57;;
59728;SDS011;45588;51.598;5.618;2024-02-26T02:59:21;11.43;;;8.90;;
59728;SDS011;45588;51.598;5.618;2024-02-26T03:01:46;11.40;;;8.18;;
59728;SDS011;45588;51.598;5.618;2024-02-26T03:04:12;12.32;;;9.68;;
59728;SDS011;45588;51.598;5.618;2024-02-26T03:06:37;15.55;;;10.07;;
59728;SDS011;45588;51.598;5.618;2024-02-26T03:09:02;14.20;;;10.35;;
59728;SDS011;45588;51.598;5.618;2024-02-26T03:11:28;16.13;;;9.05;;
59728;SDS011;45588;51.598;5.618;2024-02-26T03:13:53;15.30;;;9.88;;
59728;SDS011;45588;51.598;5.618;2024-02-26T03:16:18;17.80;;;10.38;;
59728;SDS011;45588;51.598;5.618;2024-02-26T03:18:43;15.25;;;8.80;;
59728;SDS011;45588;51.598;5.618;2024-02-26T03:21:08;11.57;;;9.30;;
59728;SDS011;45588;51.598;5.618;2024-02-26T03:23:34;14.65;;;8.63;;
59728;SDS011;45588;51.598;5.618;2024-02-26T03:26:03;14.23;;;9.05;;
59728;SDS011;45588;51.598;5.618;2024-02-26T03:28:28;11.52;;;8.10;;
59728;SDS011;45588;51.598;5.618;2024-02-26T03:30:53;13.85;;;9.68;;
59728;SDS011;45588;51.598;5.618;2024-02-26T03:33:19;14.10;;;9.83;;
59728;SDS011;45588;51.598;5.618;2024-02-26T03:35:44;14.00;;;9.77;;
59728;SDS011;45588;51.598;5.618;2024-02-26T03:38:09;12.35;;;9.65;;
59728;SDS011;45588;51.598;5.618;2024-02-26T03:40:34;12.65;;;9.35;;
59728;SDS011;45588;51.598;5.618;2024-02-26T03:42:59;15.55;;;9.77;;
59728;SDS011;45588;51.598;5.618;2024-02-26T03:45:25;13.40;;;8.67;;
59728;SDS011;45588;51.598;5.618;2024-02-26T03:47:51;12.63;;;8.02;;
59728;SDS011;45588;51.598;5.618;2024-02-26T03:50:16;10.77;;;7.50;;
59728;SDS011;45588;51.598;5.618;2024-02-26T03:52:41;7.70;;;6.45;;
59728;SDS011;45588;51.598;5.618;2024-02-26T03:55:06;12.32;;;7.53;;
59728;SDS011;45588;51.598;5.618;2024-02-26T03:57:32;12.15;;;8.15;;
59728;SDS011;45588;51.598;5.618;2024-02-26T03:59:57;12.88;;;9.43;;
59728;SDS011;45588;51.598;5.618;2024-02-26T04:02:22;11.95;;;8.68;;
59728;SDS011;45588;51.598;5.618;2024-02-26T04:04:48;13.32;;;10.40;;
59728;SDS011;45588;51.598;5.618;2024-02-26T04:07:13;14.23;;;9.18;;
59728;SDS011;45588;51.598;5.618;2024-02-26T04:09:38;16.35;;;9.82;;
59728;SDS011;45588;51.598;5.618;2024-02-26T04:12:04;20.92;;;9.52;;
59728;SDS011;45588;51.598;5.618;2024-02-26T04:14:29;11.82;;;8.70;;
59728;SDS011;45588;51.598;5.618;2024-02-26T04:16:54;13.82;;;8.65;;
59728;SDS011;45588;51.598;5.618;2024-02-26T04:19:19;12.48;;;10.02;;
59728;SDS011;45588;51.598;5.618;2024-02-26T04:21:45;16.08;;;11.23;;
59728;SDS011;45588;51.598;5.618;2024-02-26T04:24:10;16.08;;;10.45;;
59728;SDS011;45588;51.598;5.618;2024-02-26T04:26:35;16.63;;;10.47;;
59728;SDS011;45588;51.598;5.618;2024-02-26T04:29:01;15.70;;;11.60;;
59728;SDS011;45588;51.598;5.618;2024-02-26T04:31:27;19.45;;;12.07;;
59728;SDS011;45588;51.598;5.618;2024-02-26T04:33:52;13.10;;;11.13;;
59728;SDS011;45588;51.598;5.618;2024-02-26T04:36:18;18.38;;;11.70;;
59728;SDS011;45588;51.598;5.618;2024-02-26T04:38:43;18.07;;;12.87;;
59728;SDS011;45588;51.598;5.618;2024-02-26T04:41:09;18.25;;;13.77;;
59728;SDS011;45588;51.598;5.618;2024-02-26T04:43:34;18.27;;;13.40;;
59728;SDS011;45588;51.598;5.618;2024-02-26T04:45:59;18.55;;;13.52;;
59728;SDS011;45588;51.598;5.618;2024-02-26T04:48:24;20.65;;;14.50;;
59728;SDS011;45588;51.598;5.618;2024-02-26T04:50:49;19.90;;;13.05;;
59728;SDS011;45588;51.598;5.618;2024-02-26T04:53:14;18.93;;;12.27;;
59728;SDS011;45588;51.598;5.618;2024-02-26T04:55:40;19.67;;;13.80;;
59728;SDS011;45588;51.598;5.618;2024-02-26T04:58:05;19.07;;;14.23;;
59728;SDS011;45588;51.598;5.618;2024-02-26T05:00:30;16.73;;;12.05;;
59728;SDS011;45588;51.598;5.618;2024-02-26T05:02:55;13.13;;;10.48;;
59728;SDS011;45588;51.598;5.618;2024-02-26T05:05:20;15.98;;;11.65;;
59728;SDS011;45588;51.598;5.618;2024-02-26T05:07:46;17.15;;;12.73;;
59728;SDS011;45588;51.598;5.618;2024-02-26T05:10:11;17.60;;;12.27;;
59728;SDS011;45588;51.598;5.618;2024-02-26T05:12:36;16.40;;;10.63;;
59728;SDS011;45588;51.598;5.618;2024-02-26T05:15:02;16.65;;;11.93;;
59728;SDS011;45588;51.598;5.618;2024-02-26T05:17:27;12.50;;;10.55;;
59728;SDS011;45588;51.598;5.618;2024-02-26T05:19:53;15.35;;;10.32;;
59728;SDS011;45588;51.598;5.618;2024-02-26T05:22:18;14.27;;;11.10;;
59728;SDS011;45588;51.598;5.618;2024-02-26T05:24:43;13.80;;;10.60;;
59728;SDS011;45588;51.598;5.618;2024-02-26T05:27:09;14.30;;;10.90;;
59728;SDS011;45588;51.598;5.618;2024-02-26T05:29:34;12.80;;;9.60;;
59728;SDS011;45588;51.598;5.618;2024-02-26T05:32:00;17.30;;;11.47;;
59728;SDS011;45588;51.598;5.618;2024-02-26T05:34:25;13.93;;;10.00;;
59728;SDS011;45588;51.598;5.618;2024-02-26T05:36:50;12.77;;;11.00;;
59728;SDS011;45588;51.598;5.618;2024-02-26T05:39:15;12.23;;;10.40;;
59728;SDS011;45588;51.598;5.618;2024-02-26T05:41:41;13.00;;;11.40;;
59728;SDS011;45588;51.598;5.618;2024-02-26T05:44:08;13.30;;;10.32;;
59728;SDS011;45588;51.598;5.618;2024-02-26T05:46:35;13.48;;;10.88;;
59728;SDS011;45588;51.598;5.618;2024-02-26T05:49:00;13.60;;;10.73;;
59728;SDS011;45588;51.598;5.618;2024-02-26T05:51:25;10.67;;;9.47;;
59728;SDS011;45588;51.598;5.618;2024-02-26T05:53:50;11.13;;;8.63;;
59728;SDS011;45588;51.598;5.618;2024-02-26T05:56:20;12.10;;;10.20;;
59728;SDS011;45588;51.598;5.618;2024-02-26T05:58:45;12.02;;;9.25;;
59728;SDS011;45588;51.598;5.618;2024-02-26T06:01:11;15.20;;;9.45;;
59728;SDS011;45588;51.598;5.618;2024-02-26T06:03:36;14.95;;;11.30;;
59728;SDS011;45588;51.598;5.618;2024-02-26T06:06:01;14.07;;;10.63;;
59728;SDS011;45588;51.598;5.618;2024-02-26T06:08:27;14.98;;;11.90;;
59728;SDS011;45588;51.598;5.618;2024-02-26T06:10:52;16.42;;;11.23;;
59728;SDS011;45588;51.598;5.618;2024-02-26T06:13:17;14.73;;;12.35;;
59728;SDS011;45588;51.598;5.618;2024-02-26T06:15:42;15.60;;;12.20;;
59728;SDS011;45588;51.598;5.618;2024-02-26T06:18:07;16.02;;;12.23;;
59728;SDS011;45588;51.598;5.618;2024-02-26T06:20:33;16.52;;;12.55;;
59728;SDS011;45588;51.598;5.618;2024-02-26T06:22:58;17.38;;;13.68;;
59728;SDS011;45588;51.598;5.618;2024-02-26T06:25:23;16.97;;;12.43;;
59728;SDS011;45588;51.598;5.618;2024-02-26T06:27:49;17.13;;;13.75;;
59728;SDS011;45588;51.598;5.618;2024-02-26T06:30:14;22.60;;;14.43;;
59728;SDS011;45588;51.598;5.618;2024-02-26T06:32:39;21.65;;;13.65;;
59728;SDS011;45588;51.598;5.618;2024-02-26T06:35:04;17.67;;;15.00;;
59728;SDS011;45588;51.598;5.618;2024-02-26T06:37:35;19.60;;;14.43;;
59728;SDS011;45588;51.598;5.618;2024-02-26T06:40:00;23.30;;;15.00;;
59728;SDS011;45588;51.598;5.618;2024-02-26T06:42:25;20.90;;;14.65;;
59728;SDS011;45588;51.598;5.618;2024-02-26T06:44:51;20.60;;;15.02;;
59728;SDS011;45588;51.598;5.618;2024-02-26T06:47:16;23.67;;;15.95;;
59728;SDS011;45588;51.598;5.618;2024-02-26T06:49:41;20.95;;;14.55;;
59728;SDS011;45588;51.598;5.618;2024-02-26T06:52:06;19.17;;;15.75;;
59728;SDS011;45588;51.598;5.618;2024-02-26T06:54:31;19.75;;;15.68;;
59728;SDS011;45588;51.598;5.618;2024-02-26T06:56:57;20.48;;;15.32;;
59728;SDS011;45588;51.598;5.618;2024-02-26T06:59:22;20.55;;;14.80;;
59728;SDS011;45588;51.598;5.618;2024-02-26T07:01:48;22.88;;;15.23;;
59728;SDS011;45588;51.598;5.618;2024-02-26T07:04:13;20.10;;;13.98;;
59728;SDS011;45588;51.598;5.618;2024-02-26T07:06:39;21.55;;;15.95;;
59728;SDS011;45588;51.598;5.618;2024-02-26T07:09:04;19.60;;;13.80;;
59728;SDS011;45588;51.598;5.618;2024-02-26T07:11:30;25.60;;;16.10;;
59728;SDS011;45588;51.598;5.618;2024-02-26T07:13:55;21.57;;;16.13;;
59728;SDS011;45588;51.598;5.618;2024-02-26T07:16:20;19.15;;;15.25;;
59728;SDS011;45588;51.598;5.618;2024-02-26T07:18:45;21.10;;;16.10;;
59728;SDS011;45588;51.598;5.618;2024-02-26T07:21:11;18.65;;;13.90;;
59728;SDS011;45588;51.598;5.618;2024-02-26T07:23:36;17.27;;;13.20;;
59728;SDS011;45588;51.598;5.618;2024-02-26T07:26:02;19.95;;;14.35;;
59728;SDS011;45588;51.598;5.618;2024-02-26T07:28:27;16.88;;;13.43;;
59728;SDS011;45588;51.598;5.618;2024-02-26T07:30:52;20.90;;;15.53;;
59728;SDS011;45588;51.598;5.618;2024-02-26T07:33:17;19.58;;;13.65;;
59728;SDS011;45588;51.598;5.618;2024-02-26T07:35:42;19.15;;;13.95;;
59728;SDS011;45588;51.598;5.618;2024-02-26T07:38:07;18.30;;;12.75;;
59728;SDS011;45588;51.598;5.618;2024-02-26T07:40:33;17.25;;;13.27;;
59728;SDS011;45588;51.598;5.618;2024-02-26T07:42:58;19.13;;;16.40;;
59728;SDS011;45588;51.598;5.618;2024-02-26T07:45:23;18.35;;;13.88;;
59728;SDS011;45588;51.598;5.618;2024-02-26T07:47:48;15.60;;;13.18;;
59728;SDS011;45588;51.598;5.618;2024-02-26T07:50:13;20.55;;;16.05;;
59728;SDS011;45588;51.598;5.618;2024-02-26T07:52:39;19.60;;;13.90;;
59728;SDS011;45588;51.598;5.618;2024-02-26T07:55:04;18.15;;;13.35;;
59728;SDS011;45588;51.598;5.618;2024-02-26T07:57:30;17.33;;;13.63;;
59728;SDS011;45588;51.598;5.618;2024-02-26T07:59:55;17.23;;;14.20;;
59728;SDS011;45588;51.598;5.618;2024-02-26T08:02:20;17.90;;;15.77;;
59728;SDS011;45588;51.598;5.618;2024-02-26T08:04:47;22.67;;;13.05;;
59728;SDS011;45588;51.598;5.618;2024-02-26T08:07:12;21.23;;;13.25;;
59728;SDS011;45588;51.598;5.618;2024-02-26T08:09:37;20.27;;;16.15;;
59728;SDS011;45588;51.598;5.618;2024-02-26T08:12:02;20.05;;;14.32;;
59728;SDS011;45588;51.598;5.618;2024-02-26T08:14:28;18.08;;;13.45;;
59728;SDS011;45588;51.598;5.618;2024-02-26T08:16:53;17.33;;;13.70;;
59728;SDS011;45588;51.598;5.618;2024-02-26T08:19:18;17.35;;;14.55;;
59728;SDS011;45588;51.598;5.618;2024-02-26T08:21:43;16.95;;;11.55;;
59728;SDS011;45588;51.598;5.618;2024-02-26T08:24:09;21.60;;;11.95;;
59728;SDS011;45588;51.598;5.618;2024-02-26T08:26:34;17.75;;;11.82;;
59728;SDS011;45588;51.598;5.618;2024-02-26T08:28:59;20.25;;;14.35;;
59728;SDS011;45588;51.598;5.618;2024-02-26T08:31:25;20.53;;;14.73;;
59728;SDS011;45588;51.598;5.618;2024-02-26T08:33:50;21.92;;;15.25;;
59728;SDS011;45588;51.598;5.618;2024-02-26T08:36:15;20.33;;;14.77;;
59728;SDS011;45588;51.598;5.618;2024-02-26T08:38:40;20.48;;;16.27;;
59728;SDS011;45588;51.598;5.618;2024-02-26T08:41:06;20.80;;;14.57;;
59728;SDS011;45588;51.598;5.618;2024-02-26T08:43:31;20.42;;;14.80;;
59728;SDS011;45588;51.598;5.618;2024-02-26T08:45:56;21.20;;;14.57;;
59728;SDS011;45588;51.598;5.618;2024-02-26T08:48:22;21.35;;;16.77;;
59728;SDS011;45588;51.598;5.618;2024-02-26T08:50:47;22.38;;;16.20;;
59728;SDS011;45588;51.598;5.618;2024-02-26T08:53:12;21.53;;;16.07;;
59728;SDS011;45588;51.598;5.618;2024-02-26T08:55:37;23.67;;;15.80;;
59728;SDS011;45588;51.598;5.618;2024-02-26T08:58:02;20.35;;;13.55;;
59728;SDS011;45588;51.598;5.618;2024-02-26T09:00:27;21.20;;;17.17;;
59728;SDS011;45588;51.598;5.618;2024-02-26T09:02:53;19.73;;;15.48;;
59728;SDS011;45588;51.598;5.618;2024-02-26T09:05:18;22.75;;;18.52;;
59728;SDS011;45588;51.598;5.618;2024-02-26T09:07:43;24.00;;;18.13;;
59728;SDS011;45588;51.598;5.618;2024-02-26T09:10:08;24.90;;;18.05;;
59728;SDS011;45588;51.598;5.618;2024-02-26T09:12:35;23.63;;;17.92;;
59728;SDS011;45588;51.598;5.618;2024-02-26T09:15:00;24.85;;;17.25;;
59728;SDS011;45588;51.598;5.618;2024-02-26T09:17:25;23.60;;;18.73;;
59728;SDS011;45588;51.598;5.618;2024-02-26T09:19:53;23.40;;;17.88;;
59728;SDS011;45588;51.598;5.618;2024-02-26T09:22:18;26.15;;;18.55;;
59728;SDS011;45588;51.598;5.618;2024-02-26T09:24:43;28.77;;;19.15;;
59728;SDS011;45588;51.598;5.618;2024-02-26T09:27:08;27.67;;;21.97;;
59728;SDS011;45588;51.598;5.618;2024-02-26T09:29:35;28.57;;;19.03;;
59728;SDS011;45588;51.598;5.618;2024-02-26T09:32:00;33.47;;;22.08;;
59728;SDS011;45588;51.598;5.618;2024-02-26T09:34:25;26.63;;;19.38;;
59728;SDS011;45588;51.598;5.618;2024-02-26T09:36:51;30.65;;;21.20;;
59728;SDS011;45588;51.598;5.618;2024-02-26T09:39:16;32.40;;;22.42;;
59728;SDS011;45588;51.598;5.618;2024-02-26T09:41:46;30.13;;;22.73;;
59728;SDS011;45588;51.598;5.618;2024-02-26T09:44:11;28.42;;;21.73;;
59728;SDS011;45588;51.598;5.618;2024-02-26T09:46:37;28.95;;;20.73;;
59728;SDS011;45588;51.598;5.618;2024-02-26T09:49:02;30.48;;;20.98;;
59728;SDS011;45588;51.598;5.618;2024-02-26T09:51:28;31.42;;;20.75;;
59728;SDS011;45588;51.598;5.618;2024-02-26T09:53:53;34.80;;;25.33;;
59728;SDS011;45588;51.598;5.618;2024-02-26T09:56:19;33.53;;;21.67;;
59728;SDS011;45588;51.598;5.618;2024-02-26T09:58:45;35.55;;;25.25;;
59728;SDS011;45588;51.598;5.618;2024-02-26T10:01:16;32.05;;;25.13;;
59728;SDS011;45588;51.598;5.618;2024-02-26T10:03:41;30.83;;;19.45;;
59728;SDS011;45588;51.598;5.618;2024-02-26T10:06:10;37.28;;;25.33;;
59728;SDS011;45588;51.598;5.618;2024-02-26T10:08:35;35.78;;;25.95;;
59728;SDS011;45588;51.598;5.618;2024-02-26T10:11:02;36.47;;;25.45;;
59728;SDS011;45588;51.598;5.618;2024-02-26T10:13:27;38.20;;;27.80;;
59728;SDS011;45588;51.598;5.618;2024-02-26T10:15:52;44.13;;;32.00;;
59728;SDS011;45588;51.598;5.618;2024-02-26T10:18:17;43.42;;;30.45;;
59728;SDS011;45588;51.598;5.618;2024-02-26T10:20:42;44.40;;;33.97;;
59728;SDS011;45588;51.598;5.618;2024-02-26T10:23:23;44.15;;;27.88;;
59728;SDS011;45588;51.598;5.618;2024-02-26T10:25:53;44.67;;;28.25;;
59728;SDS011;45588;51.598;5.618;2024-02-26T10:28:19;47.28;;;32.95;;
59728;SDS011;45588;51.598;5.618;2024-02-26T10:30:44;44.45;;;24.65;;
59728;SDS011;45588;51.598;5.618;2024-02-26T10:33:10;48.65;;;29.35;;
59728;SDS011;45588;51.598;5.618;2024-02-26T10:35:36;48.10;;;32.35;;
59728;SDS011;45588;51.598;5.618;2024-02-26T10:38:05;48.10;;;31.13;;
59728;SDS011;45588;51.598;5.618;2024-02-26T10:40:31;45.67;;;26.08;;
59728;SDS011;45588;51.598;5.618;2024-02-26T10:42:57;50.13;;;31.20;;
59728;SDS011;45588;51.598;5.618;2024-02-26T10:45:23;49.05;;;32.55;;
59728;SDS011;45588;51.598;5.618;2024-02-26T10:47:48;46.92;;;29.85;;
59728;SDS011;45588;51.598;5.618;2024-02-26T10:50:13;50.00;;;28.08;;
59728;SDS011;45588;51.598;5.618;2024-02-26T10:52:40;55.65;;;31.15;;
59728;SDS011;45588;51.598;5.618;2024-02-26T10:55:06;49.80;;;28.27;;
59728;SDS011;45588;51.598;5.618;2024-02-26T10:57:35;45.72;;;27.92;;
59728;SDS011;45588;51.598;5.618;2024-02-26T11:00:02;44.58;;;26.58;;
59728;SDS011;45588;51.598;5.618;2024-02-26T11:02:30;46.35;;;31.02;;
59728;SDS011;45588;51.598;5.618;2024-02-26T11:04:56;50.22;;;30.30;;
59728;SDS011;45588;51.598;5.618;2024-02-26T11:07:22;49.03;;;29.50;;
59728;SDS011;45588;51.598;5.618;2024-02-26T11:09:48;53.22;;;29.40;;
59728;SDS011;45588;51.598;5.618;2024-02-26T11:12:17;47.22;;;25.42;;
59728;SDS011;45588;51.598;5.618;2024-02-26T11:14:42;44.28;;;26.38;;
59728;SDS011;45588;51.598;5.618;2024-02-26T11:17:09;48.67;;;28.48;;
59728;SDS011;45588;51.598;5.618;2024-02-26T11:19:35;57.67;;;31.27;;
59728;SDS011;45588;51.598;5.618;2024-02-26T11:22:01;46.05;;;27.98;;
59728;SDS011;45588;51.598;5.618;2024-02-26T11:24:26;44.03;;;25.95;;
59728;SDS011;45588;51.598;5.618;2024-02-26T11:26:52;49.95;;;26.88;;
59728;SDS011;45588;51.598;5.618;2024-02-26T11:29:23;52.40;;;27.63;;
59728;SDS011;45588;51.598;5.618;2024-02-26T11:31:50;43.97;;;22.30;;
59728;SDS011;45588;51.598;5.618;2024-02-26T11:34:15;48.35;;;27.33;;
59728;SDS011;45588;51.598;5.618;2024-02-26T11:36:41;45.80;;;26.20;;
59728;SDS011;45588;51.598;5.618;2024-02-26T11:39:07;56.92;;;25.48;;
59728;SDS011;45588;51.598;5.618;2024-02-26T11:41:32;68.88;;;30.38;;
59728;SDS011;45588;51.598;5.618;2024-02-26T11:43:59;51.67;;;28.10;;
59728;SDS011;45588;51.598;5.618;2024-02-26T11:46:29;54.40;;;31.65;;
59728;SDS011;45588;51.598;5.618;2024-02-26T11:49:04;56.95;;;31.77;;
59728;SDS011;45588;51.598;5.618;2024-02-26T11:51:45;57.20;;;28.50;;
59728;SDS011;45588;51.598;5.618;2024-02-26T11:54:27;60.40;;;27.85;;
59728;SDS011;45588;51.598;5.618;2024-02-26T11:57:00;61.15;;;31.55;;
59728;SDS011;45588;51.598;5.618;2024-02-26T11:59:38;55.95;;;26.63;;
59728;SDS011;45588;51.598;5.618;2024-02-26T12:02:04;62.58;;;32.63;;
59728;SDS011;45588;51.598;5.618;2024-02-26T12:04:30;65.30;;;32.85;;
59728;SDS011;45588;51.598;5.618;2024-02-26T12:06:56;64.15;;;29.75;;
59728;SDS011;45588;51.598;5.618;2024-02-26T12:12:17;67.68;;;35.60;;
59728;SDS011;45588;51.598;5.618;2024-02-26T12:14:52;66.85;;;32.33;;
59728;SDS011;45588;51.598;5.618;2024-02-26T12:17:25;71.15;;;37.88;;
59728;SDS011;45588;51.598;5.618;2024-02-26T12:19:50;63.15;;;34.25;;
59728;SDS011;45588;51.598;5.618;2024-02-26T12:22:18;67.50;;;35.50;;
59728;SDS011;45588;51.598;5.618;2024-02-26T12:24:43;71.07;;;38.40;;
59728;SDS011;45588;51.598;5.618;2024-02-26T12:27:09;71.97;;;38.97;;
59728;SDS011;45588;51.598;5.618;2024-02-26T12:29:34;67.10;;;35.20;;
59728;SDS011;45588;51.598;5.618;2024-02-26T12:31:59;70.47;;;39.33;;
59728;SDS011;45588;51.598;5.618;2024-02-26T12:34:25;61.80;;;37.28;;
59728;SDS011;45588;51.598;5.618;2024-02-26T12:36:51;72.60;;;38.70;;
59728;SDS011;45588;51.598;5.618;2024-02-26T12:39:16;66.47;;;33.75;;
59728;SDS011;45588;51.598;5.618;2024-02-26T12:41:41;71.85;;;36.65;;
59728;SDS011;45588;51.598;5.618;2024-02-26T12:44:11;82.82;;;40.20;;
59728;SDS011;45588;51.598;5.618;2024-02-26T12:46:36;69.40;;;36.22;;
59728;SDS011;45588;51.598;5.618;2024-02-26T12:49:01;79.15;;;38.70;;
59728;SDS011;45588;51.598;5.618;2024-02-26T12:51:27;74.72;;;37.25;;
59728;SDS011;45588;51.598;5.618;2024-02-26T12:53:54;71.80;;;39.25;;
59728;SDS011;45588;51.598;5.618;2024-02-26T12:56:20;71.90;;;34.95;;
59728;SDS011;45588;51.598;5.618;2024-02-26T12:58:46;69.22;;;36.88;;
59728;SDS011;45588;51.598;5.618;2024-02-26T13:01:14;64.82;;;32.92;;
59728;SDS011;45588;51.598;5.618;2024-02-26T13:03:39;64.82;;;35.05;;
59728;SDS011;45588;51.598;5.618;2024-02-26T13:06:05;63.95;;;31.15;;
59728;SDS011;45588;51.598;5.618;2024-02-26T13:08:31;64.85;;;33.88;;
59728;SDS011;45588;51.598;5.618;2024-02-26T13:10:57;62.75;;;32.50;;
59728;SDS011;45588;51.598;5.618;2024-02-26T13:13:23;68.43;;;33.35;;
59728;SDS011;45588;51.598;5.618;2024-02-26T13:15:48;62.33;;;30.45;;
59728;SDS011;45588;51.598;5.618;2024-02-26T13:18:14;62.67;;;32.30;;
59728;SDS011;45588;51.598;5.618;2024-02-26T13:20:39;57.17;;;29.73;;
59728;SDS011;45588;51.598;5.618;2024-02-26T13:23:08;56.15;;;30.67;;
59728;SDS011;45588;51.598;5.618;2024-02-26T13:25:33;52.58;;;28.15;;
59728;SDS011;45588;51.598;5.618;2024-02-26T13:28:09;52.55;;;28.85;;
59728;SDS011;45588;51.598;5.618;2024-02-26T13:30:34;51.40;;;26.25;;
59728;SDS011;45588;51.598;5.618;2024-02-26T13:33:09;49.28;;;26.65;;
59728;SDS011;45588;51.598;5.618;2024-02-26T13:35:35;46.88;;;24.30;;
59728;SDS011;45588;51.598;5.618;2024-02-26T13:38:02;41.35;;;26.40;;
59728;SDS011;45588;51.598;5.618;2024-02-26T13:40:27;44.45;;;23.92;;
59728;SDS011;45588;51.598;5.618;2024-02-26T13:42:54;48.70;;;28.23;;
59728;SDS011;45588;51.598;5.618;2024-02-26T13:45:19;46.25;;;25.38;;
59728;SDS011;45588;51.598;5.618;2024-02-26T13:47:44;50.65;;;25.77;;
59728;SDS011;45588;51.598;5.618;2024-02-26T13:50:09;43.28;;;26.00;;
59728;SDS011;45588;51.598;5.618;2024-02-26T13:52:35;41.50;;;24.05;;
59728;SDS011;45588;51.598;5.618;2024-02-26T13:55:00;38.65;;;22.83;;
59728;SDS011;45588;51.598;5.618;2024-02-26T13:57:25;43.97;;;23.98;;
59728;SDS011;45588;51.598;5.618;2024-02-26T13:59:50;38.45;;;20.60;;
59728;SDS011;45588;51.598;5.618;2024-02-26T14:02:16;40.80;;;22.45;;
59728;SDS011;45588;51.598;5.618;2024-02-26T14:04:42;42.10;;;23.25;;
59728;SDS011;45588;51.598;5.618;2024-02-26T14:07:07;42.25;;;22.63;;
59728;SDS011;45588;51.598;5.618;2024-02-26T14:09:33;39.40;;;23.35;;
59728;SDS011;45588;51.598;5.618;2024-02-26T14:11:59;36.47;;;22.65;;
59728;SDS011;45588;51.598;5.618;2024-02-26T14:14:25;35.15;;;19.90;;
59728;SDS011;45588;51.598;5.618;2024-02-26T14:16:51;35.20;;;20.58;;
59728;SDS011;45588;51.598;5.618;2024-02-26T14:19:16;39.75;;;22.23;;
59728;SDS011;45588;51.598;5.618;2024-02-26T14:21:41;38.87;;;22.27;;